Biscayne Natl Park, Florida
Current Conditions -  °F | °C
As of 2:58 AM on Saturday 22 Nov 2014 (Local Time) from KHST Reporting Station
Scattered Clouds Scattered Clouds  
Wind Chill: 75°   Ceiling: Unl
Heat Index: 75°   Visibility: 10mi
Dew Point: 69°   Wind: 13mph
Humidity: 81%   Direction: 60°ENE
Pressure: 30.12"   Gusts: NA
Location:  25.42°N, 80.2°W
Report Text: KHST 220758Z AUTO 06011KT 10SM FEW024 SCT036 24/20 A3012 RMK AO2 SLP203 T02390204
Loading
Personal Weather Stations






























Interactive Weather Map New forecast layout! Learn more

10-Day Weather Forecast

Advertisements
Track Severe Weather on mobile